Date,TemperatureHighF,TemperatureAvgF,TemperatureLowF,DewpointHighF,DewpointAvgF,DewpointLowF,HumidityHigh,HumidityAvg,HumidityLow,PressureMaxIn,PressureMinIn,WindSpeedMaxMPH,WindSpeedAvgMPH,GustSpeedMaxMPH,PrecipitationSumIn
2013-12-1,38,34,29,34,30,23,96,85,74,30.22,29.97,7,3,7,0.14
2013-12-2,42,37,34,36,34,32,97,90,73,29.96,29.85,3,0,4,0.02
2013-12-3,43,34,27,32,30,26,96,85,61,30.01,29.90,4,1,5,0.00
2013-12-4,47,38,30,41,36,29,96,90,77,30.04,29.91,12,4,15,0.01
2013-12-5,60,51,42,55,46,35,91,84,66,29.98,29.73,11,7,14,0.00
2013-12-6,41,35,32,35,30,26,97,84,74,30.24,29.99,6,3,10,0.16
2013-12-7,33,30,26,28,22,18,90,73,56,30.55,30.22,9,4,15,0.00
2013-12-8,30,26,21,25,18,14,92,70,59,30.58,30.24,11,4,15,0.00
2013-12-9,42,35,27,38,31,25,93,84,71,30.22,29.84,13,8,20,0.12
2013-12-10,35,27,20,27,18,12,92,72,59,30.05,29.90,10,5,15,0.00
2013-12-11,26,22,15,22,15,10,89,74,60,30.27,30.05,9,5,15,0.00
2013-12-12,20,17,12,16,12,8,91,80,62,30.32,30.04,9,4,14,0.00
2013-12-13,25,20,16,22,15,11,92,82,67,30.40,30.02,10,5,23,0.00
2013-12-14,24,14,9,22,11,3,95,88,73,30.48,29.79,10,6,15,0.00
2013-12-15,24,22,17,24,20,15,96,94,89,29.83,29.62,11,5,15,0.00
2013-12-16,22,15,-2,20,13,-5,92,90,86,30.20,29.83,12,3,14,0.00
2013-12-17,28,18,-2,27,16,-5,95,93,87,30.17,29.92,7,3,9,0.00
2013-12-18,32,29,25,28,26,24,96,89,80,30.07,29.93,8,4,15,0.09
2013-12-19,44,36,26,35,29,21,89,75,62,30.04,29.89,8,4,15,0.14
2013-12-20,46,40,35,44,38,33,98,93,82,30.01,29.77,6,2,8,0.11
2013-12-21,55,40,32,53,39,32,99,97,83,29.88,29.71,10,4,12,0.53
2013-12-22,46,37,32,45,36,32,99,97,90,29.96,29.56,9,2,14,0.30
2013-12-23,42,36,28,39,34,26,95,91,83,30.24,29.94,7,4,10,0.01
2013-12-24,28,21,13,26,19,9,94,91,85,30.49,30.20,9,4,16,0.00
2013-12-25,25,16,6,18,11,3,92,82,71,30.55,30.24,8,4,10,0.00
2013-12-26,34,29,25,30,23,18,92,78,69,30.27,30.06,8,5,11,0.00
2013-12-27,34,28,23,29,24,15,92,82,71,30.29,30.10,6,3,9,0.00
2013-12-28,45,38,31,36,32,27,95,78,65,30.08,29.93,9,4,14,0.01
2013-12-29,46,41,32,41,35,29,96,79,61,29.93,29.60,12,4,15,0.13
2013-12-30,30,20,15,28,16,10,92,84,75,30.22,29.73,11,6,17,0.00
2013-12-31,26,19,16,20,13,6,86,75,61,30.23,29.97,14,6,21,0.00